Yosemite National Park, CA

11:56 AM PST op 24 november 2014 (GMT -0800)
Loggers Retreat | Change Station
CLOSE
Current Station
Persoonlijk weerstation
Location: Fish Camp, CA
Geometrische hoogte: 4960 ft
Nabije weerstations

Hoogte 4960 ft 37.45 °N, 119.65 °W | Updated 26 minutes ago

Helder
Helder
51.3 °F
Voelt als 51.3 °F
N
3.0
Wind Variabel Wind van ZO
Gusts 4.0 mijl/u

Vandaag
Hoog -- | Laag -- °F
--% Kans op neerslag
Gisteren
Hoog -- | Laag -- °F
Precip. -- inches
6:48 AM 4:41 PM
Wassende halvemaan, 7% visible
Druk 30.36 inches
Zicht 10.0 mijlen
Wolken Helder
Dauwpunt 43 °F
Vochtigheid 74%
Neerslag 0.00 inches
Dikte sneeuw Niet beschikbaar.
UV 5.2 van de 12
Pollen 1.30 van de 12
Luchtkwaliteit Niet beschikbaar.
Flu Activity Niet beschikbaar.
METAR KO22 241915Z AUTO 18005KT 10SM CLR 12/12 A3036 RMK AO1

More Conditions Fewer Conditions

Druk 30.36 inches
Zicht 10.0 mijlen
Wolken Helder
Dauwpunt 43 °F
Vochtigheid 74%
Neerslag 0.00 inches
Dikte sneeuw Niet beschikbaar.
UV 5.2 van de 12
Pollen 1.30 van de 12
Luchtkwaliteit Niet beschikbaar.
Flu Activity Niet beschikbaar.
METAR KO22 241915Z AUTO 18005KT 10SM CLR 12/12 A3036 RMK AO1

More Conditions Fewer Conditions

10-Day Weather Forecast

Almanac

Astronomie

Nov. 24, 2014 Opkomst Ondergang
Werkelijke tijd
Burgerlijke schemering
Nautische schemering
Astronomische schemering
Maan
Golflengte van het zichtbare licht
Daglengte
Tomorrow will be .
, % of the Moon is Illuminated

Extremen vandaag

State Highs State Lows

Community

WunderPhotos

Upload Photos

1,773,396 foto’s ge-upload!

WunderBlogs® & News

Nearby

Luchtkwaliteit

  Luchtkwaliteit LK-index Verontreinigende stof
Not available.

Dikte sneeuw

Station Depth Geometrische hoogte

Aardbevingen

Stad Distance Mag. Time & Date
Minimum magnitude displayed is 2.5.

Watertemperatuur langs de kust

Plaats Temperatuur

Nabije weerstations